sensor_id;sensor_type;location;lat;lon;timestamp;P1;durP1;ratioP1;P2;durP2;ratioP2
56037;SDS011;41907;47.848;9.000;2022-10-22T00:01:31;1.73;;;0.70;;
56037;SDS011;41907;47.848;9.000;2022-10-22T00:03:57;1.23;;;0.50;;
56037;SDS011;41907;47.848;9.000;2022-10-22T00:06:22;2.13;;;0.80;;
56037;SDS011;41907;47.848;9.000;2022-10-22T00:08:48;3.97;;;1.67;;
56037;SDS011;41907;47.848;9.000;2022-10-22T00:11:14;3.20;;;1.65;;
56037;SDS011;41907;47.848;9.000;2022-10-22T00:13:41;3.75;;;2.42;;
56037;SDS011;41907;47.848;9.000;2022-10-22T00:16:06;5.18;;;2.17;;
56037;SDS011;41907;47.848;9.000;2022-10-22T00:18:32;6.07;;;2.15;;
56037;SDS011;41907;47.848;9.000;2022-10-22T00:20:58;9.82;;;2.17;;
56037;SDS011;41907;47.848;9.000;2022-10-22T00:23:23;10.00;;;5.07;;
56037;SDS011;41907;47.848;9.000;2022-10-22T00:25:48;9.65;;;5.80;;
56037;SDS011;41907;47.848;9.000;2022-10-22T00:28:14;8.50;;;6.47;;
56037;SDS011;41907;47.848;9.000;2022-10-22T00:30:39;11.10;;;5.93;;
56037;SDS011;41907;47.848;9.000;2022-10-22T00:33:05;11.85;;;6.68;;
56037;SDS011;41907;47.848;9.000;2022-10-22T00:35:31;13.07;;;7.15;;
56037;SDS011;41907;47.848;9.000;2022-10-22T00:37:56;12.95;;;7.90;;
56037;SDS011;41907;47.848;9.000;2022-10-22T00:40:22;9.75;;;6.13;;
56037;SDS011;41907;47.848;9.000;2022-10-22T00:42:47;10.52;;;6.90;;
56037;SDS011;41907;47.848;9.000;2022-10-22T00:47:45;11.45;;;6.88;;
56037;SDS011;41907;47.848;9.000;2022-10-22T00:53:10;9.88;;;5.97;;
56037;SDS011;41907;47.848;9.000;2022-10-22T00:55:38;13.30;;;6.25;;
56037;SDS011;41907;47.848;9.000;2022-10-22T00:58:07;9.98;;;6.18;;
56037;SDS011;41907;47.848;9.000;2022-10-22T01:00:33;12.50;;;6.82;;
56037;SDS011;41907;47.848;9.000;2022-10-22T01:02:59;15.90;;;8.57;;
56037;SDS011;41907;47.848;9.000;2022-10-22T01:05:26;8.02;;;5.70;;
56037;SDS011;41907;47.848;9.000;2022-10-22T01:07:53;10.48;;;5.53;;
56037;SDS011;41907;47.848;9.000;2022-10-22T01:21:40;6.03;;;2.20;;
56037;SDS011;41907;47.848;9.000;2022-10-22T01:27:05;5.72;;;2.13;;
56037;SDS011;41907;47.848;9.000;2022-10-22T01:29:52;2.58;;;2.03;;
56037;SDS011;41907;47.848;9.000;2022-10-22T01:32:21;4.70;;;2.22;;
56037;SDS011;41907;47.848;9.000;2022-10-22T01:35:11;3.15;;;1.90;;
56037;SDS011;41907;47.848;9.000;2022-10-22T01:37:38;3.33;;;1.92;;
56037;SDS011;41907;47.848;9.000;2022-10-22T01:40:08;5.38;;;2.33;;
56037;SDS011;41907;47.848;9.000;2022-10-22T01:42:35;3.83;;;1.52;;
56037;SDS011;41907;47.848;9.000;2022-10-22T01:45:01;2.50;;;1.38;;
56037;SDS011;41907;47.848;9.000;2022-10-22T01:47:46;2.38;;;1.20;;
56037;SDS011;41907;47.848;9.000;2022-10-22T01:50:24;2.13;;;1.30;;
56037;SDS011;41907;47.848;9.000;2022-10-22T01:59:33;1.85;;;1.25;;
56037;SDS011;41907;47.848;9.000;2022-10-22T02:02:05;1.73;;;1.20;;
56037;SDS011;41907;47.848;9.000;2022-10-22T02:04:57;1.88;;;1.38;;
56037;SDS011;41907;47.848;9.000;2022-10-22T02:07:27;2.75;;;1.38;;
56037;SDS011;41907;47.848;9.000;2022-10-22T02:09:56;2.85;;;1.80;;
56037;SDS011;41907;47.848;9.000;2022-10-22T02:12:25;1.60;;;1.33;;
56037;SDS011;41907;47.848;9.000;2022-10-22T02:14:53;2.42;;;1.40;;
56037;SDS011;41907;47.848;9.000;2022-10-22T02:17:20;5.75;;;1.55;;
56037;SDS011;41907;47.848;9.000;2022-10-22T02:19:51;2.03;;;1.67;;
56037;SDS011;41907;47.848;9.000;2022-10-22T02:22:20;3.25;;;1.40;;
56037;SDS011;41907;47.848;9.000;2022-10-22T02:24:46;4.28;;;1.40;;
56037;SDS011;41907;47.848;9.000;2022-10-22T02:27:20;2.42;;;1.85;;
56037;SDS011;41907;47.848;9.000;2022-10-22T02:32:21;3.63;;;1.75;;
56037;SDS011;41907;47.848;9.000;2022-10-22T02:34:50;2.47;;;1.30;;
56037;SDS011;41907;47.848;9.000;2022-10-22T02:37:18;1.20;;;1.10;;
56037;SDS011;41907;47.848;9.000;2022-10-22T02:39:44;2.08;;;1.25;;
56037;SDS011;41907;47.848;9.000;2022-10-22T02:42:10;3.10;;;1.38;;
56037;SDS011;41907;47.848;9.000;2022-10-22T02:44:36;3.28;;;1.40;;
56037;SDS011;41907;47.848;9.000;2022-10-22T02:47:02;2.40;;;1.90;;
56037;SDS011;41907;47.848;9.000;2022-10-22T02:49:28;2.83;;;2.35;;
56037;SDS011;41907;47.848;9.000;2022-10-22T02:51:53;3.25;;;2.00;;
56037;SDS011;41907;47.848;9.000;2022-10-22T02:54:18;1.90;;;1.55;;
56037;SDS011;41907;47.848;9.000;2022-10-22T02:56:44;2.90;;;1.60;;
56037;SDS011;41907;47.848;9.000;2022-10-22T02:59:09;2.25;;;1.65;;
56037;SDS011;41907;47.848;9.000;2022-10-22T03:01:35;5.55;;;1.73;;
56037;SDS011;41907;47.848;9.000;2022-10-22T03:04:00;3.20;;;1.30;;
56037;SDS011;41907;47.848;9.000;2022-10-22T03:06:25;2.55;;;1.42;;
56037;SDS011;41907;47.848;9.000;2022-10-22T03:08:51;4.45;;;1.10;;
56037;SDS011;41907;47.848;9.000;2022-10-22T03:11:16;2.05;;;1.67;;
56037;SDS011;41907;47.848;9.000;2022-10-22T03:13:41;1.27;;;1.10;;
56037;SDS011;41907;47.848;9.000;2022-10-22T03:16:07;1.60;;;1.38;;
56037;SDS011;41907;47.848;9.000;2022-10-22T03:18:32;2.53;;;2.10;;
56037;SDS011;41907;47.848;9.000;2022-10-22T03:21:12;1.38;;;1.27;;
56037;SDS011;41907;47.848;9.000;2022-10-22T03:23:55;1.77;;;1.40;;
56037;SDS011;41907;47.848;9.000;2022-10-22T03:26:22;2.42;;;1.10;;
56037;SDS011;41907;47.848;9.000;2022-10-22T03:28:48;1.92;;;1.45;;
56037;SDS011;41907;47.848;9.000;2022-10-22T03:31:14;2.10;;;1.40;;
56037;SDS011;41907;47.848;9.000;2022-10-22T03:33:39;3.38;;;2.03;;
56037;SDS011;41907;47.848;9.000;2022-10-22T03:36:05;1.33;;;1.23;;
56037;SDS011;41907;47.848;9.000;2022-10-22T03:38:31;5.32;;;1.23;;
56037;SDS011;41907;47.848;9.000;2022-10-22T03:40:59;1.70;;;1.30;;
56037;SDS011;41907;47.848;9.000;2022-10-22T03:43:25;2.88;;;1.20;;
56037;SDS011;41907;47.848;9.000;2022-10-22T03:45:50;2.25;;;1.55;;
56037;SDS011;41907;47.848;9.000;2022-10-22T03:48:15;1.33;;;1.00;;
56037;SDS011;41907;47.848;9.000;2022-10-22T03:50:41;1.67;;;1.10;;
56037;SDS011;41907;47.848;9.000;2022-10-22T03:53:06;1.45;;;1.20;;
56037;SDS011;41907;47.848;9.000;2022-10-22T03:55:34;1.27;;;1.13;;
56037;SDS011;41907;47.848;9.000;2022-10-22T03:57:59;1.02;;;0.95;;
56037;SDS011;41907;47.848;9.000;2022-10-22T04:00:25;2.50;;;1.10;;
56037;SDS011;41907;47.848;9.000;2022-10-22T04:02:50;1.00;;;0.90;;
56037;SDS011;41907;47.848;9.000;2022-10-22T04:05:15;1.13;;;0.90;;
56037;SDS011;41907;47.848;9.000;2022-10-22T04:07:41;2.33;;;1.00;;
56037;SDS011;41907;47.848;9.000;2022-10-22T04:10:06;1.20;;;1.10;;
56037;SDS011;41907;47.848;9.000;2022-10-22T04:12:32;1.55;;;1.30;;
56037;SDS011;41907;47.848;9.000;2022-10-22T04:14:57;1.42;;;1.17;;
56037;SDS011;41907;47.848;9.000;2022-10-22T04:17:23;1.80;;;1.20;;
56037;SDS011;41907;47.848;9.000;2022-10-22T04:19:48;2.05;;;1.38;;
56037;SDS011;41907;47.848;9.000;2022-10-22T04:22:13;2.45;;;1.60;;
56037;SDS011;41907;47.848;9.000;2022-10-22T04:24:39;2.85;;;1.40;;
56037;SDS011;41907;47.848;9.000;2022-10-22T04:27:04;2.83;;;1.50;;
56037;SDS011;41907;47.848;9.000;2022-10-22T04:29:29;2.83;;;1.80;;
56037;SDS011;41907;47.848;9.000;2022-10-22T04:31:54;3.22;;;1.48;;
56037;SDS011;41907;47.848;9.000;2022-10-22T04:34:20;4.82;;;1.77;;
56037;SDS011;41907;47.848;9.000;2022-10-22T04:36:45;1.50;;;1.30;;
56037;SDS011;41907;47.848;9.000;2022-10-22T04:39:10;1.73;;;1.10;;
56037;SDS011;41907;47.848;9.000;2022-10-22T04:41:36;2.55;;;1.00;;
56037;SDS011;41907;47.848;9.000;2022-10-22T04:44:03;0.80;;;0.80;;
56037;SDS011;41907;47.848;9.000;2022-10-22T04:46:30;1.13;;;0.75;;
56037;SDS011;41907;47.848;9.000;2022-10-22T04:48:57;2.33;;;0.90;;
56037;SDS011;41907;47.848;9.000;2022-10-22T04:51:24;1.23;;;1.13;;
56037;SDS011;41907;47.848;9.000;2022-10-22T04:56:16;2.47;;;0.50;;
56037;SDS011;41907;47.848;9.000;2022-10-22T04:58:45;1.10;;;0.52;;
56037;SDS011;41907;47.848;9.000;2022-10-22T05:01:12;0.70;;;0.65;;
56037;SDS011;41907;47.848;9.000;2022-10-22T05:03:47;0.87;;;0.50;;
56037;SDS011;41907;47.848;9.000;2022-10-22T05:06:13;1.90;;;0.50;;
56037;SDS011;41907;47.848;9.000;2022-10-22T05:08:39;2.92;;;0.70;;
56037;SDS011;41907;47.848;9.000;2022-10-22T05:11:15;2.33;;;0.50;;
56037;SDS011;41907;47.848;9.000;2022-10-22T05:13:42;0.70;;;0.68;;
56037;SDS011;41907;47.848;9.000;2022-10-22T05:16:08;0.65;;;0.25;;
56037;SDS011;41907;47.848;9.000;2022-10-22T05:21:03;0.80;;;0.55;;
56037;SDS011;41907;47.848;9.000;2022-10-22T05:23:29;1.00;;;0.60;;
56037;SDS011;41907;47.848;9.000;2022-10-22T05:25:54;1.17;;;0.50;;
56037;SDS011;41907;47.848;9.000;2022-10-22T05:28:20;0.55;;;0.55;;
56037;SDS011;41907;47.848;9.000;2022-10-22T05:30:52;1.15;;;0.93;;
56037;SDS011;41907;47.848;9.000;2022-10-22T05:33:18;1.98;;;0.80;;
56037;SDS011;41907;47.848;9.000;2022-10-22T05:35:43;1.02;;;0.93;;
56037;SDS011;41907;47.848;9.000;2022-10-22T05:38:09;1.00;;;0.80;;
56037;SDS011;41907;47.848;9.000;2022-10-22T05:40:34;0.75;;;0.73;;
56037;SDS011;41907;47.848;9.000;2022-10-22T05:42:59;0.90;;;0.75;;
56037;SDS011;41907;47.848;9.000;2022-10-22T05:45:25;3.60;;;1.20;;
56037;SDS011;41907;47.848;9.000;2022-10-22T05:47:50;2.58;;;1.27;;
56037;SDS011;41907;47.848;9.000;2022-10-22T05:50:15;1.50;;;1.40;;
56037;SDS011;41907;47.848;9.000;2022-10-22T05:52:41;1.85;;;1.40;;
56037;SDS011;41907;47.848;9.000;2022-10-22T05:55:06;1.40;;;1.30;;
56037;SDS011;41907;47.848;9.000;2022-10-22T05:57:31;1.38;;;1.27;;
56037;SDS011;41907;47.848;9.000;2022-10-22T05:59:57;1.95;;;0.90;;
56037;SDS011;41907;47.848;9.000;2022-10-22T06:02:22;1.27;;;0.90;;
56037;SDS011;41907;47.848;9.000;2022-10-22T06:04:47;3.63;;;1.00;;
56037;SDS011;41907;47.848;9.000;2022-10-22T06:07:13;0.82;;;0.63;;
56037;SDS011;41907;47.848;9.000;2022-10-22T06:09:39;0.77;;;0.65;;
56037;SDS011;41907;47.848;9.000;2022-10-22T06:12:05;0.65;;;0.57;;
56037;SDS011;41907;47.848;9.000;2022-10-22T06:14:34;0.60;;;0.40;;
56037;SDS011;41907;47.848;9.000;2022-10-22T06:17:00;3.17;;;2.25;;
56037;SDS011;41907;47.848;9.000;2022-10-22T06:19:25;2.05;;;1.08;;
56037;SDS011;41907;47.848;9.000;2022-10-22T06:21:51;1.23;;;0.80;;
56037;SDS011;41907;47.848;9.000;2022-10-22T06:24:17;0.82;;;0.52;;
56037;SDS011;41907;47.848;9.000;2022-10-22T06:26:42;1.35;;;0.98;;
56037;SDS011;41907;47.848;9.000;2022-10-22T06:29:07;6.90;;;6.40;;
56037;SDS011;41907;47.848;9.000;2022-10-22T06:31:34;2.35;;;2.25;;
56037;SDS011;41907;47.848;9.000;2022-10-22T06:34:03;1.70;;;1.05;;
56037;SDS011;41907;47.848;9.000;2022-10-22T06:36:30;1.05;;;0.50;;
56037;SDS011;41907;47.848;9.000;2022-10-22T06:38:56;14.25;;;5.38;;
56037;SDS011;41907;47.848;9.000;2022-10-22T06:41:21;1.50;;;0.75;;
56037;SDS011;41907;47.848;9.000;2022-10-22T06:43:47;2.00;;;0.55;;
56037;SDS011;41907;47.848;9.000;2022-10-22T06:46:17;0.95;;;0.30;;
56037;SDS011;41907;47.848;9.000;2022-10-22T06:48:55;0.77;;;0.70;;
56037;SDS011;41907;47.848;9.000;2022-10-22T06:51:23;1.60;;;0.60;;
56037;SDS011;41907;47.848;9.000;2022-10-22T06:53:49;1.30;;;0.60;;
56037;SDS011;41907;47.848;9.000;2022-10-22T06:56:16;0.57;;;0.57;;
56037;SDS011;41907;47.848;9.000;2022-10-22T06:58:51;1.45;;;0.80;;
56037;SDS011;41907;47.848;9.000;2022-10-22T07:01:19;0.93;;;0.60;;
56037;SDS011;41907;47.848;9.000;2022-10-22T07:03:46;0.93;;;0.93;;
56037;SDS011;41907;47.848;9.000;2022-10-22T07:06:14;1.55;;;0.70;;
56037;SDS011;41907;47.848;9.000;2022-10-22T07:08:40;0.80;;;0.77;;
56037;SDS011;41907;47.848;9.000;2022-10-22T07:13:42;1.30;;;1.15;;
56037;SDS011;41907;47.848;9.000;2022-10-22T07:16:08;4.28;;;1.08;;
56037;SDS011;41907;47.848;9.000;2022-10-22T07:18:34;1.52;;;1.10;;
56037;SDS011;41907;47.848;9.000;2022-10-22T07:21:00;1.05;;;0.95;;
56037;SDS011;41907;47.848;9.000;2022-10-22T07:23:27;3.03;;;1.80;;
56037;SDS011;41907;47.848;9.000;2022-10-22T07:25:52;2.83;;;2.10;;
56037;SDS011;41907;47.848;9.000;2022-10-22T07:28:18;1.77;;;1.20;;
56037;SDS011;41907;47.848;9.000;2022-10-22T07:30:44;1.88;;;1.00;;
56037;SDS011;41907;47.848;9.000;2022-10-22T07:33:10;1.58;;;0.88;;
56037;SDS011;41907;47.848;9.000;2022-10-22T07:35:36;1.25;;;1.13;;
56037;SDS011;41907;47.848;9.000;2022-10-22T07:38:03;1.40;;;1.30;;
56037;SDS011;41907;47.848;9.000;2022-10-22T07:40:29;1.02;;;0.88;;
56037;SDS011;41907;47.848;9.000;2022-10-22T07:42:54;4.22;;;2.30;;
56037;SDS011;41907;47.848;9.000;2022-10-22T07:45:20;1.60;;;1.00;;
56037;SDS011;41907;47.848;9.000;2022-10-22T07:47:45;1.08;;;1.00;;
56037;SDS011;41907;47.848;9.000;2022-10-22T07:50:11;21.08;;;6.40;;
56037;SDS011;41907;47.848;9.000;2022-10-22T07:52:37;2.58;;;1.50;;
56037;SDS011;41907;47.848;9.000;2022-10-22T07:55:02;6.95;;;3.83;;
56037;SDS011;41907;47.848;9.000;2022-10-22T07:57:28;8.40;;;4.65;;
56037;SDS011;41907;47.848;9.000;2022-10-22T07:59:53;6.03;;;3.40;;
56037;SDS011;41907;47.848;9.000;2022-10-22T08:02:20;16.10;;;5.65;;
56037;SDS011;41907;47.848;9.000;2022-10-22T08:04:45;14.98;;;5.18;;
56037;SDS011;41907;47.848;9.000;2022-10-22T08:07:11;22.90;;;8.18;;
56037;SDS011;41907;47.848;9.000;2022-10-22T08:09:36;17.00;;;7.05;;
56037;SDS011;41907;47.848;9.000;2022-10-22T08:12:01;12.23;;;5.55;;
56037;SDS011;41907;47.848;9.000;2022-10-22T08:14:27;6.38;;;4.28;;
56037;SDS011;41907;47.848;9.000;2022-10-22T08:16:52;10.38;;;6.82;;
56037;SDS011;41907;47.848;9.000;2022-10-22T08:19:17;4.10;;;2.83;;
56037;SDS011;41907;47.848;9.000;2022-10-22T08:21:45;3.22;;;2.67;;
56037;SDS011;41907;47.848;9.000;2022-10-22T08:24:11;3.08;;;2.70;;
56037;SDS011;41907;47.848;9.000;2022-10-22T08:26:37;2.35;;;2.00;;
56037;SDS011;41907;47.848;9.000;2022-10-22T08:29:02;3.60;;;2.10;;
56037;SDS011;41907;47.848;9.000;2022-10-22T08:31:28;1.65;;;1.52;;
56037;SDS011;41907;47.848;9.000;2022-10-22T08:33:53;2.10;;;1.75;;
56037;SDS011;41907;47.848;9.000;2022-10-22T08:36:19;12.68;;;7.28;;
56037;SDS011;41907;47.848;9.000;2022-10-22T08:38:44;2.03;;;1.00;;
56037;SDS011;41907;47.848;9.000;2022-10-22T08:41:14;6.00;;;2.00;;
56037;SDS011;41907;47.848;9.000;2022-10-22T08:46:32;1.00;;;0.90;;
56037;SDS011;41907;47.848;9.000;2022-10-22T08:49:37;2.25;;;1.33;;
56037;SDS011;41907;47.848;9.000;2022-10-22T08:52:06;1.00;;;0.90;;
56037;SDS011;41907;47.848;9.000;2022-10-22T08:57:27;1.00;;;0.90;;
56037;SDS011;41907;47.848;9.000;2022-10-22T09:08:19;5.70;;;1.20;;
56037;SDS011;41907;47.848;9.000;2022-10-22T09:10:47;2.17;;;0.95;;
56037;SDS011;41907;47.848;9.000;2022-10-22T09:13:17;3.60;;;1.50;;
56037;SDS011;41907;47.848;9.000;2022-10-22T09:15:45;1.73;;;1.20;;
56037;SDS011;41907;47.848;9.000;2022-10-22T09:18:23;2.35;;;1.13;;
56037;SDS011;41907;47.848;9.000;2022-10-22T09:20:55;1.95;;;0.90;;
56037;SDS011;41907;47.848;9.000;2022-10-22T09:23:32;1.73;;;0.90;;
56037;SDS011;41907;47.848;9.000;2022-10-22T09:26:20;1.10;;;1.00;;
56037;SDS011;41907;47.848;9.000;2022-10-22T09:28:48;1.80;;;1.40;;
56037;SDS011;41907;47.848;9.000;2022-10-22T09:31:14;3.88;;;0.93;;
56037;SDS011;41907;47.848;9.000;2022-10-22T09:36:07;3.78;;;1.17;;
56037;SDS011;41907;47.848;9.000;2022-10-22T09:38:40;0.90;;;0.60;;
56037;SDS011;41907;47.848;9.000;2022-10-22T09:41:09;1.17;;;1.08;;
56037;SDS011;41907;47.848;9.000;2022-10-22T09:43:34;1.85;;;0.80;;
56037;SDS011;41907;47.848;9.000;2022-10-22T09:46:01;3.97;;;1.25;;
56037;SDS011;41907;47.848;9.000;2022-10-22T09:48:33;1.13;;;1.00;;
56037;SDS011;41907;47.848;9.000;2022-10-22T09:51:14;2.40;;;1.90;;
56037;SDS011;41907;47.848;9.000;2022-10-22T09:53:44;2.50;;;1.08;;
56037;SDS011;41907;47.848;9.000;2022-10-22T09:56:39;1.23;;;1.13;;
56037;SDS011;41907;47.848;9.000;2022-10-22T09:59:11;1.88;;;1.13;;
56037;SDS011;41907;47.848;9.000;2022-10-22T10:01:38;1.02;;;0.90;;
56037;SDS011;41907;47.848;9.000;2022-10-22T10:04:08;2.25;;;0.90;;
56037;SDS011;41907;47.848;9.000;2022-10-22T10:06:37;1.10;;;0.85;;
56037;SDS011;41907;47.848;9.000;2022-10-22T10:09:25;1.15;;;0.60;;
56037;SDS011;41907;47.848;9.000;2022-10-22T10:15:35;2.72;;;0.60;;
56037;SDS011;41907;47.848;9.000;2022-10-22T10:23:45;1.65;;;0.55;;
56037;SDS011;41907;47.848;9.000;2022-10-22T10:26:33;1.08;;;0.68;;
56037;SDS011;41907;47.848;9.000;2022-10-22T10:56:34;2.30;;;0.80;;
56037;SDS011;41907;47.848;9.000;2022-10-22T10:59:27;0.77;;;0.57;;
56037;SDS011;41907;47.848;9.000;2022-10-22T11:07:32;4.05;;;0.50;;
56037;SDS011;41907;47.848;9.000;2022-10-22T11:10:18;0.75;;;0.60;;
56037;SDS011;41907;47.848;9.000;2022-10-22T11:12:52;2.78;;;2.50;;
56037;SDS011;41907;47.848;9.000;2022-10-22T11:17:51;1.50;;;1.20;;
56037;SDS011;41907;47.848;9.000;2022-10-22T11:20:25;1.40;;;0.70;;
56037;SDS011;41907;47.848;9.000;2022-10-22T11:23:06;1.35;;;1.25;;
56037;SDS011;41907;47.848;9.000;2022-10-22T11:25:38;0.95;;;0.47;;
56037;SDS011;41907;47.848;9.000;2022-10-22T11:28:10;2.15;;;0.52;;
56037;SDS011;41907;47.848;9.000;2022-10-22T11:30:42;0.75;;;0.40;;
56037;SDS011;41907;47.848;9.000;2022-10-22T11:33:11;1.30;;;0.47;;
56037;SDS011;41907;47.848;9.000;2022-10-22T11:35:43;1.00;;;0.40;;
56037;SDS011;41907;47.848;9.000;2022-10-22T11:38:13;2.38;;;0.50;;
56037;SDS011;41907;47.848;9.000;2022-10-22T11:40:56;1.15;;;0.60;;
56037;SDS011;41907;47.848;9.000;2022-10-22T11:43:25;1.52;;;0.60;;
56037;SDS011;41907;47.848;9.000;2022-10-22T11:46:56;0.80;;;0.45;;
56037;SDS011;41907;47.848;9.000;2022-10-22T11:49:04;3.70;;;1.50;;
56037;SDS011;41907;47.848;9.000;2022-10-22T11:51:40;0.40;;;0.40;;
56037;SDS011;41907;47.848;9.000;2022-10-22T11:56:56;0.50;;;0.50;;
56037;SDS011;41907;47.848;9.000;2022-10-22T12:10:21;1.15;;;0.73;;
56037;SDS011;41907;47.848;9.000;2022-10-22T12:12:51;1.08;;;0.70;;
56037;SDS011;41907;47.848;9.000;2022-10-22T12:15:22;0.40;;;0.30;;
56037;SDS011;41907;47.848;9.000;2022-10-22T12:17:49;1.45;;;0.50;;
56037;SDS011;41907;47.848;9.000;2022-10-22T12:20:15;1.00;;;0.60;;
56037;SDS011;41907;47.848;9.000;2022-10-22T12:22:41;2.42;;;1.27;;
56037;SDS011;41907;47.848;9.000;2022-10-22T12:25:23;1.05;;;0.50;;
56037;SDS011;41907;47.848;9.000;2022-10-22T12:27:51;1.80;;;0.60;;
56037;SDS011;41907;47.848;9.000;2022-10-22T12:30:20;1.88;;;1.00;;
56037;SDS011;41907;47.848;9.000;2022-10-22T12:32:49;0.63;;;0.50;;
56037;SDS011;41907;47.848;9.000;2022-10-22T12:35:18;1.63;;;0.63;;
56037;SDS011;41907;47.848;9.000;2022-10-22T12:37:48;0.60;;;0.60;;
56037;SDS011;41907;47.848;9.000;2022-10-22T12:40:18;0.70;;;0.70;;
56037;SDS011;41907;47.848;9.000;2022-10-22T12:42:56;0.85;;;0.75;;
56037;SDS011;41907;47.848;9.000;2022-10-22T12:45:27;2.45;;;0.90;;
56037;SDS011;41907;47.848;9.000;2022-10-22T12:47:55;0.82;;;0.50;;
56037;SDS011;41907;47.848;9.000;2022-10-22T12:50:36;1.23;;;0.60;;
56037;SDS011;41907;47.848;9.000;2022-10-22T12:53:05;0.85;;;0.50;;
56037;SDS011;41907;47.848;9.000;2022-10-22T12:55:52;1.20;;;0.70;;
56037;SDS011;41907;47.848;9.000;2022-10-22T12:58:19;1.60;;;0.80;;
56037;SDS011;41907;47.848;9.000;2022-10-22T13:00:52;1.20;;;0.70;;
56037;SDS011;41907;47.848;9.000;2022-10-22T13:03:25;2.72;;;0.55;;
56037;SDS011;41907;47.848;9.000;2022-10-22T13:05:51;2.10;;;0.60;;
56037;SDS011;41907;47.848;9.000;2022-10-22T13:08:17;1.65;;;0.70;;
56037;SDS011;41907;47.848;9.000;2022-10-22T13:10:50;1.85;;;0.65;;
56037;SDS011;41907;47.848;9.000;2022-10-22T13:13:30;0.95;;;0.63;;
56037;SDS011;41907;47.848;9.000;2022-10-22T13:16:11;3.30;;;0.77;;
56037;SDS011;41907;47.848;9.000;2022-10-22T13:18:48;0.98;;;0.40;;
56037;SDS011;41907;47.848;9.000;2022-10-22T13:21:28;1.95;;;0.63;;
56037;SDS011;41907;47.848;9.000;2022-10-22T13:23:58;0.93;;;0.57;;
56037;SDS011;41907;47.848;9.000;2022-10-22T13:26:42;0.98;;;0.50;;
56037;SDS011;41907;47.848;9.000;2022-10-22T13:29:14;3.33;;;0.40;;
56037;SDS011;41907;47.848;9.000;2022-10-22T13:31:47;1.10;;;0.47;;
56037;SDS011;41907;47.848;9.000;2022-10-22T13:34:15;0.60;;;0.43;;
56037;SDS011;41907;47.848;9.000;2022-10-22T13:36:43;2.42;;;0.50;;
56037;SDS011;41907;47.848;9.000;2022-10-22T13:39:19;0.60;;;0.30;;
56037;SDS011;41907;47.848;9.000;2022-10-22T13:41:46;0.98;;;0.85;;
56037;SDS011;41907;47.848;9.000;2022-10-22T13:44:14;0.60;;;0.45;;
56037;SDS011;41907;47.848;9.000;2022-10-22T13:46:39;1.00;;;0.50;;
56037;SDS011;41907;47.848;9.000;2022-10-22T13:49:09;1.55;;;0.47;;
56037;SDS011;41907;47.848;9.000;2022-10-22T13:51:39;1.65;;;0.60;;
56037;SDS011;41907;47.848;9.000;2022-10-22T13:54:06;1.65;;;0.50;;
56037;SDS011;41907;47.848;9.000;2022-10-22T13:56:38;1.10;;;0.60;;
56037;SDS011;41907;47.848;9.000;2022-10-22T13:59:03;1.85;;;0.50;;
56037;SDS011;41907;47.848;9.000;2022-10-22T14:01:29;3.13;;;0.80;;
56037;SDS011;41907;47.848;9.000;2022-10-22T14:03:55;3.38;;;0.90;;
56037;SDS011;41907;47.848;9.000;2022-10-22T14:06:23;1.58;;;0.80;;
56037;SDS011;41907;47.848;9.000;2022-10-22T14:08:55;1.08;;;0.55;;
56037;SDS011;41907;47.848;9.000;2022-10-22T14:11:23;0.75;;;0.57;;
56037;SDS011;41907;47.848;9.000;2022-10-22T14:13:51;1.02;;;0.50;;
56037;SDS011;41907;47.848;9.000;2022-10-22T14:16:20;0.57;;;0.50;;
56037;SDS011;41907;47.848;9.000;2022-10-22T14:18:48;0.82;;;0.57;;
56037;SDS011;41907;47.848;9.000;2022-10-22T14:21:14;4.70;;;1.00;;
56037;SDS011;41907;47.848;9.000;2022-10-22T14:23:41;1.17;;;0.77;;
56037;SDS011;41907;47.848;9.000;2022-10-22T14:26:11;2.17;;;2.08;;
56037;SDS011;41907;47.848;9.000;2022-10-22T14:28:45;1.65;;;1.55;;
56037;SDS011;41907;47.848;9.000;2022-10-22T14:31:10;1.60;;;0.80;;
56037;SDS011;41907;47.848;9.000;2022-10-22T14:33:36;1.42;;;0.90;;
56037;SDS011;41907;47.848;9.000;2022-10-22T14:36:01;1.42;;;0.60;;
56037;SDS011;41907;47.848;9.000;2022-10-22T14:38:27;1.92;;;0.70;;
56037;SDS011;41907;47.848;9.000;2022-10-22T14:40:53;1.27;;;0.60;;
56037;SDS011;41907;47.848;9.000;2022-10-22T14:43:20;2.22;;;0.57;;
56037;SDS011;41907;47.848;9.000;2022-10-22T14:45:47;2.90;;;0.93;;
56037;SDS011;41907;47.848;9.000;2022-10-22T14:48:13;1.63;;;0.68;;
56037;SDS011;41907;47.848;9.000;2022-10-22T14:50:40;1.00;;;0.75;;
56037;SDS011;41907;47.848;9.000;2022-10-22T14:53:06;1.73;;;0.80;;
56037;SDS011;41907;47.848;9.000;2022-10-22T14:55:31;0.50;;;0.50;;
56037;SDS011;41907;47.848;9.000;2022-10-22T14:57:58;2.75;;;0.80;;
56037;SDS011;41907;47.848;9.000;2022-10-22T15:00:23;2.97;;;1.23;;
56037;SDS011;41907;47.848;9.000;2022-10-22T15:02:48;1.70;;;1.10;;
56037;SDS011;41907;47.848;9.000;2022-10-22T15:05:14;1.23;;;0.60;;
56037;SDS011;41907;47.848;9.000;2022-10-22T15:07:41;1.95;;;0.50;;
56037;SDS011;41907;47.848;9.000;2022-10-22T15:10:07;1.17;;;0.50;;
56037;SDS011;41907;47.848;9.000;2022-10-22T15:12:33;1.00;;;0.52;;
56037;SDS011;41907;47.848;9.000;2022-10-22T15:14:59;0.50;;;0.50;;
56037;SDS011;41907;47.848;9.000;2022-10-22T15:17:25;0.85;;;0.70;;
56037;SDS011;41907;47.848;9.000;2022-10-22T15:19:50;0.95;;;0.60;;
56037;SDS011;41907;47.848;9.000;2022-10-22T15:22:17;3.55;;;0.75;;
56037;SDS011;41907;47.848;9.000;2022-10-22T15:24:43;2.90;;;2.70;;
56037;SDS011;41907;47.848;9.000;2022-10-22T15:27:12;0.90;;;0.90;;
56037;SDS011;41907;47.848;9.000;2022-10-22T15:29:37;3.45;;;1.00;;
56037;SDS011;41907;47.848;9.000;2022-10-22T15:32:03;2.35;;;0.70;;
56037;SDS011;41907;47.848;9.000;2022-10-22T15:34:30;3.70;;;1.00;;
56037;SDS011;41907;47.848;9.000;2022-10-22T15:37:00;1.42;;;0.77;;
56037;SDS011;41907;47.848;9.000;2022-10-22T15:39:27;2.85;;;1.23;;
56037;SDS011;41907;47.848;9.000;2022-10-22T15:41:53;1.42;;;1.20;;
56037;SDS011;41907;47.848;9.000;2022-10-22T15:44:22;2.30;;;1.63;;
56037;SDS011;41907;47.848;9.000;2022-10-22T15:46:49;2.25;;;1.52;;
56037;SDS011;41907;47.848;9.000;2022-10-22T15:49:15;2.42;;;2.22;;
56037;SDS011;41907;47.848;9.000;2022-10-22T15:51:41;2.30;;;0.93;;
56037;SDS011;41907;47.848;9.000;2022-10-22T15:54:10;1.10;;;1.00;;
56037;SDS011;41907;47.848;9.000;2022-10-22T15:56:38;0.60;;;0.55;;
56037;SDS011;41907;47.848;9.000;2022-10-22T15:59:03;2.40;;;0.60;;
56037;SDS011;41907;47.848;9.000;2022-10-22T16:01:29;0.55;;;0.43;;
56037;SDS011;41907;47.848;9.000;2022-10-22T16:03:55;1.45;;;0.50;;
56037;SDS011;41907;47.848;9.000;2022-10-22T16:09:22;0.60;;;0.60;;
56037;SDS011;41907;47.848;9.000;2022-10-22T16:11:49;0.50;;;0.50;;
56037;SDS011;41907;47.848;9.000;2022-10-22T16:14:15;2.53;;;0.60;;
56037;SDS011;41907;47.848;9.000;2022-10-22T16:16:44;2.53;;;0.85;;
56037;SDS011;41907;47.848;9.000;2022-10-22T16:19:15;1.20;;;0.77;;
56037;SDS011;41907;47.848;9.000;2022-10-22T16:21:42;2.45;;;0.90;;
56037;SDS011;41907;47.848;9.000;2022-10-22T16:24:08;1.15;;;0.70;;
56037;SDS011;41907;47.848;9.000;2022-10-22T16:26:35;3.42;;;0.95;;
56037;SDS011;41907;47.848;9.000;2022-10-22T16:29:01;0.73;;;0.70;;
56037;SDS011;41907;47.848;9.000;2022-10-22T16:31:27;0.88;;;0.75;;
56037;SDS011;41907;47.848;9.000;2022-10-22T16:33:52;1.42;;;0.75;;
56037;SDS011;41907;47.848;9.000;2022-10-22T16:36:19;1.63;;;1.13;;
56037;SDS011;41907;47.848;9.000;2022-10-22T16:38:45;1.77;;;0.80;;
56037;SDS011;41907;47.848;9.000;2022-10-22T16:41:21;1.05;;;0.93;;
56037;SDS011;41907;47.848;9.000;2022-10-22T16:43:49;4.38;;;1.10;;
56037;SDS011;41907;47.848;9.000;2022-10-22T16:46:16;1.67;;;1.00;;
56037;SDS011;41907;47.848;9.000;2022-10-22T16:48:47;4.55;;;1.27;;
56037;SDS011;41907;47.848;9.000;2022-10-22T16:51:15;2.78;;;1.20;;